S. MARTÍ SACALM (La Selva)





Hora UTC 08:35
Temperatura 6.9 ºC
Humitat 99.5 %
Pressió 1002.3 hPa
Pluja 0.0 mm
Velocitat vent 20.5 km/h
Direcció vent SW
Radiació solar 15.4 W/m²

Dades diàries 2022-12-10



Hora UTC (hivern +1h; estiu +2h)
Temperatura (ºC) Humitat (%) Pressió (hPa) Velocitat vent (km/h) Precipitació (mm) Radiació solar (W/m²)
Hora UTC Aire Humitat Pressió Vel. Dir. Vel. Max Dir. Intent. màx 5 min. Rad. Sol.
00:05 7.2 96.9 1001.0 5.5 NE 5.5 NE 0.0 0.1
00:10 7.2 97.0 1000.9 4.9 NE 7.8 ENE 0.0 0.1
00:15 7.2 97.1 1000.9 5.1 NE 8.1 NE 0.0 0.1
00:20 7.2 97.2 1000.9 4.5 NE 6.7 NE 0.0 0.1
00:25 7.2 97.3 1000.8 5.1 NE 7.8 NNE 0.0 0.1
00:30 7.2 97.4 1000.8 5.5 NE 8.8 NNE 0.0 0.1
00:35 7.2 97.5 1000.8 5.7 NE 9.2 NE 0.0 0.1
00:40 7.2 97.5 1000.8 5.6 NE 9.2 NE 0.0 0.1
00:45 7.3 97.6 1000.7 7.1 NNE 12.4 NNE 0.0 0.1
00:50 7.3 97.6 1000.7 6.9 NNE 11.3 NNE 0.0 0.1
00:55 7.3 97.5 1000.7 7.1 NNE 11.0 NNE 0.0 0.1
01:00 7.3 97.5 1000.7 8.0 NNE 13.1 N 0.0 0.1
01:05 7.3 97.6 1000.7 7.2 N 12.4 NNE 0.0 0.1
01:10 7.4 97.6 1000.7 8.7 N 16.2 N 0.0 0.1
01:15 7.4 97.7 1000.7 8.9 N 14.5 NNW 0.0 0.1
01:20 7.4 97.6 1000.7 8.4 N 13.1 NNW 0.0 0.1
01:25 7.4 97.6 1000.7 9.0 N 15.9 N 0.0 0.1
01:30 7.4 97.6 1000.7 10.2 N 17.7 N 0.0 0.1
01:35 7.4 97.7 1000.7 10.7 N 17.0 N 0.0 0.1
01:40 7.4 97.7 1000.7 11.6 N 18.7 N 0.0 0.1
01:45 7.4 97.6 1000.7 10.9 N 16.6 N 0.0 0.1
01:50 7.4 97.6 1000.7 11.4 N 20.1 NNE 0.0 0.1
01:55 7.5 97.4 1000.8 10.9 N 17.0 N 0.0 0.1
02:00 7.5 97.3 1000.8 8.6 N 14.5 N 0.0 0.1
02:05 7.5 97.1 1000.9 8.9 N 15.2 N 0.0 0.1
02:10 7.5 97.1 1000.9 9.0 N 15.9 NNW 0.0 0.1
02:15 7.5 97.1 1000.9 8.0 NNE 13.1 N 0.0 0.1
02:20 7.5 97.1 1000.9 6.9 N 12.4 NNW 0.0 0.1
02:25 7.5 97.1 1000.9 7.4 NNE 12.4 NNE 0.0 0.1
02:30 7.5 96.9 1001.0 6.8 N 11.3 N 0.0 0.1
02:35 7.6 96.8 1001.0 5.3 NNE 9.5 NNE 0.0 0.1
02:40 7.6 96.6 1001.0 5.3 NNE 9.2 NE 0.0 0.1
02:45 7.6 96.4 1001.0 5.5 NNE 7.8 NNE 0.0 0.1
02:50 7.6 96.3 1001.0 4.8 NNE 9.2 NNE 0.0 0.1
02:55 7.5 96.1 1000.9 5.3 NE 7.8 NE 0.0 0.1
03:00 7.4 96.1 1001.0 5.6 NNE 7.8 NNE 0.0 0.1
03:05 7.5 96.3 1001.0 5.1 NNE 7.8 N 0.0 0.1
03:10 7.5 96.1 1001.0 3.5 NE 5.3 NE 0.0 0.1
03:15 7.4 96.0 1001.0 3.1 ENE 5.3 NE 0.0 0.1
03:20 7.4 96.1 1000.9 3.3 NNE 6.0 NNE 0.0 0.1
03:25 7.5 96.0 1000.9 5.6 NE 9.5 NE 0.0 0.1
03:30 7.5 95.8 1000.9 5.7 NE 11.3 NE 0.0 0.1
03:35 7.5 95.8 1000.9 6.4 ENE 9.9 NE 0.0 0.1
03:40 7.4 95.7 1000.8 5.4 ENE 7.4 ENE 0.0 0.1
03:45 7.3 95.8 1000.8 5.5 E 7.1 ENE 0.0 0.1
03:50 7.2 96.0 1000.8 5.9 E 7.4 E 0.0 0.1
03:55 7.1 96.2 1000.8 4.8 E 6.7 E 0.0 0.1
04:00 7.1 96.5 1000.8 6.8 E 9.5 E 0.0 0.1
04:05 7.2 96.6 1000.8 4.2 E 7.8 ESE 0.0 0.1
04:10 7.3 96.7 1000.9 1.0 SSW 5.3 SW 0.0 0.1
04:15 7.3 96.5 1000.9 6.1 SW 7.8 SW 0.0 0.1
04:20 7.2 96.6 1000.9 7.1 SW 8.8 SW 0.0 0.1
04:25 7.1 96.9 1000.8 6.6 SW 8.5 SW 0.0 0.1
04:30 7.1 97.2 1000.8 7.0 SW 9.9 SW 0.0 0.1
04:35 7.1 97.4 1000.8 8.4 SW 10.3 SW 0.0 0.1
04:40 7.1 97.6 1000.8 6.4 SW 9.2 SW 0.0 0.1
04:45 7.1 97.8 1000.9 7.6 SW 11.0 SW 0.0 0.1
04:50 7.1 97.9 1000.9 8.7 SW 13.8 SW 0.0 0.1
04:55 7.1 98.0 1000.7 13.0 SW 15.2 SW 0.0 0.1
05:00 7.0 98.0 1000.7 13.5 SW 16.2 SW 0.0 0.1
05:05 6.9 98.2 1000.6 12.5 SW 17.0 SSW 0.0 0.1
05:10 6.9 98.3 1000.7 10.5 SW 13.1 SW 0.0 0.1
05:15 6.8 98.4 1000.8 8.6 WSW 11.7 SW 0.0 0.1
05:20 6.9 98.5 1000.8 7.7 WSW 11.7 WSW 0.0 0.1
05:25 6.9 98.4 1000.8 9.9 SW 14.5 SW 0.0 0.1
05:30 6.8 98.4 1000.8 10.1 SW 13.8 SW 0.0 0.1
05:35 6.7 98.5 1000.7 12.0 SW 14.5 SW 0.0 0.1
05:40 6.6 98.5 1000.8 9.9 SW 13.1 SW 0.0 0.1
05:45 6.6 98.6 1000.8 10.6 SW 13.4 SW 0.0 0.1
05:50 6.6 98.7 1000.9 10.9 SW 15.9 SW 0.0 0.1
05:55 6.7 98.8 1001.0 11.0 SW 14.5 WSW 0.0 0.1
06:00 6.7 98.7 1001.0 9.6 SW 13.1 SW 0.0 0.1
06:05 6.6 98.7 1001.0 8.4 SW 11.0 SW 0.0 0.1
06:10 6.6 98.8 1001.1 7.8 SW 11.0 SW 0.0 0.1
06:15 6.6 98.9 1001.2 6.8 WSW 11.3 W 0.0 0.1
06:20 6.7 99.0 1001.3 6.2 WSW 9.2 WSW 0.0 0.1
06:25 6.6 98.7 1001.3 8.2 SSW 11.3 SW 0.0 0.1
06:30 6.5 98.8 1001.3 8.5 SW 11.3 SW 0.0 0.1
06:35 6.4 98.8 1001.4 9.3 SW 12.7 SSW 0.0 0.1
06:40 6.4 98.9 1001.4 10.2 SSW 16.6 SSW 0.0 0.1
06:45 6.3 98.9 1001.4 12.8 SSW 15.9 SSW 0.0 0.1
06:50 6.3 99.0 1001.5 13.4 SW 17.7 SW 0.0 0.1
06:55 6.4 99.0 1001.5 13.5 SW 18.7 SW 0.0 0.1
07:00 6.3 99.1 1001.6 15.5 SW 19.8 SW 0.0 0.3
07:05 6.4 99.1 1001.7 14.4 SW 19.8 WSW 0.0 0.6
07:10 6.4 99.1 1001.7 14.7 SW 22.2 SW 0.0 0.8
07:15 6.4 99.2 1001.7 16.6 SW 26.5 SW 0.0 1.0
07:20 6.5 99.3 1001.6 21.3 SW 27.5 SW 0.0 1.4
07:25 6.6 99.4 1001.7 21.5 SW 29.7 SW 0.0 1.8
07:30 6.7 99.3 1001.7 22.6 SW 34.2 SW 0.0 2.4
07:35 6.7 99.4 1001.8 23.1 SW 31.8 SW 0.0 3.3
07:40 6.7 99.4 1001.9 20.5 SW 27.9 SW 0.0 4.2
07:45 6.7 99.4 1001.9 20.0 SW 29.3 WSW 0.0 5.5
07:50 6.7 99.4 1001.8 21.9 SW 30.4 SW 0.0 7.7
07:55 6.8 99.4 1002.0 19.7 SW 27.9 SSW 0.0 9.4
08:00 6.8 99.4 1002.1 14.7 SSW 19.8 SSW 0.0 10.5
08:05 6.8 99.4 1002.1 14.9 SSW 20.1 SSW 0.0 10.3
08:10 6.8 99.4 1002.0 19.2 SW 26.5 SW 0.0 14.7
08:15 6.8 99.5 1002.0 22.3 SW 27.5 SW 0.0 23.6
08:20 6.8 99.5 1002.2 18.9 SW 25.1 SW 0.0 13.1
08:25 6.8 99.5 1002.2 19.2 SW 25.4 SW 0.0 14.5
08:30 6.8 99.5 1002.2 21.8 SSW 28.2 SW 0.0 17.3
08:35 6.9 99.5 1002.3 20.5 SW 27.5 SW 0.0 15.4
Màxima 7.6 99.5 1002.3 23.1 SW 34.2 SW 0.0 23.6
Mínima 6.3 95.7 1000.6
Total 0.0